createdAt,value
2022-11-13T00:03:54.582Z,59.84
2022-11-13T00:09:16.138Z,60.18
2022-11-13T00:14:37.720Z,60.69
2022-11-13T00:19:58.942Z,60.70
2022-11-13T00:25:20.331Z,59.72
2022-11-13T00:30:41.914Z,60.20
2022-11-13T00:36:08.919Z,59.94
2022-11-13T00:41:29.978Z,59.35
2022-11-13T00:46:51.795Z,59.10
2022-11-13T00:52:12.834Z,59.39
2022-11-13T00:57:34.224Z,59.73
2022-11-13T01:02:55.231Z,59.96
2022-11-13T01:08:16.648Z,60.57
2022-11-13T01:13:38.682Z,59.85
2022-11-13T01:18:59.926Z,59.66
2022-11-13T01:24:20.940Z,59.69
2022-11-13T01:29:42.789Z,60.27
2022-11-13T01:35:04.188Z,62.07
2022-11-13T01:40:25.340Z,62.95
2022-11-13T01:45:58.495Z,63.87
2022-11-13T01:51:30.458Z,63.92
2022-11-13T01:56:52.392Z,63.97
2022-11-13T02:02:13.310Z,63.78
2022-11-13T02:07:34.513Z,64.72
2022-11-13T02:12:55.656Z,64.75
2022-11-13T02:18:18.555Z,64.56
2022-11-13T02:24:07.287Z,64.28
2022-11-13T02:29:28.714Z,64.08
2022-11-13T02:34:49.568Z,63.68
2022-11-13T02:40:11.311Z,63.58
2022-11-13T02:45:32.446Z,63.93
2022-11-13T02:50:53.883Z,64.20
2022-11-13T02:56:15.576Z,64.37
2022-11-13T03:01:36.502Z,64.54
2022-11-13T03:06:57.841Z,64.49
2022-11-13T03:12:19.058Z,63.73
2022-11-13T03:17:40.469Z,63.44
2022-11-13T03:23:01.404Z,63.28
2022-11-13T03:28:22.629Z,62.28
2022-11-13T03:33:43.785Z,60.18
2022-11-13T03:39:05.586Z,58.82
2022-11-13T03:44:26.856Z,59.47
2022-11-13T03:49:48.298Z,59.48
2022-11-13T03:55:09.600Z,59.30
2022-11-13T04:00:31.529Z,59.23
2022-11-13T04:05:52.609Z,58.24
2022-11-13T04:11:13.795Z,59.92
2022-11-13T04:16:35.060Z,62.53
2022-11-13T04:21:56.171Z,63.63
2022-11-13T04:27:17.266Z,63.32
2022-11-13T04:32:38.552Z,63.67
2022-11-13T04:37:59.840Z,63.90
2022-11-13T04:43:20.897Z,63.69
2022-11-13T04:48:42.181Z,64.92
2022-11-13T04:54:03.691Z,64.77
2022-11-13T04:59:24.705Z,64.83
2022-11-13T05:04:47.562Z,64.52
2022-11-13T05:10:08.736Z,64.62
2022-11-13T05:15:30.040Z,64.88
2022-11-13T05:20:51.348Z,65.95
2022-11-13T05:26:14.010Z,65.64
2022-11-13T05:31:35.129Z,66.15
2022-11-13T05:36:56.343Z,66.05
2022-11-13T05:42:17.755Z,65.67
2022-11-13T05:47:39.056Z,66.20
2022-11-13T05:53:00.324Z,65.69
2022-11-13T05:58:21.624Z,65.79
2022-11-13T06:03:43.495Z,65.60
2022-11-13T06:09:07.168Z,65.71
2022-11-13T06:14:28.479Z,67.10
2022-11-13T06:19:49.636Z,79.29
2022-11-13T06:25:11.100Z,84.77
2022-11-13T06:30:32.492Z,85.47
2022-11-13T06:35:53.787Z,86.41
2022-11-13T06:41:16.740Z,86.03
2022-11-13T06:46:37.779Z,85.38
2022-11-13T06:51:59.131Z,83.83
2022-11-13T06:57:20.416Z,83.18
2022-11-13T07:02:41.763Z,81.94
2022-11-13T07:08:03.280Z,79.86
2022-11-13T07:13:26.738Z,78.67
2022-11-13T07:18:52.641Z,78.17
2022-11-13T07:24:16.941Z,75.60
2022-11-13T07:29:39.376Z,74.02
2022-11-13T07:35:00.742Z,72.96
2022-11-13T07:40:21.752Z,71.54
2022-11-13T07:45:43.319Z,71.80
2022-11-13T07:51:04.451Z,71.42
2022-11-13T07:56:25.860Z,71.03
2022-11-13T08:01:47.291Z,71.69
2022-11-13T08:07:10.907Z,71.16
2022-11-13T08:12:32.167Z,71.36
2022-11-13T08:18:00.484Z,71.55
2022-11-13T08:23:21.919Z,71.60
2022-11-13T08:28:44.297Z,71.93
2022-11-13T08:34:05.661Z,71.28
2022-11-13T08:39:26.908Z,71.09
2022-11-13T08:44:48.174Z,71.16
2022-11-13T08:50:09.880Z,71.46
2022-11-13T08:55:32.536Z,70.28
2022-11-13T09:00:53.640Z,69.60
2022-11-13T09:06:15.344Z,68.55
2022-11-13T09:11:36.697Z,67.52
2022-11-13T09:16:58.365Z,67.24
2022-11-13T09:22:20.119Z,66.87
2022-11-13T09:27:41.190Z,65.37
2022-11-13T09:33:02.387Z,63.68
2022-11-13T09:38:24.061Z,62.02
2022-11-13T09:43:56.735Z,60.98
2022-11-13T09:49:41.891Z,57.70
2022-11-13T09:55:04.666Z,58.52
2022-11-13T10:00:29.077Z,59.01
2022-11-13T10:06:04.634Z,59.50
2022-11-13T10:11:54.893Z,60.58
2022-11-13T10:17:29.906Z,61.01
2022-11-13T10:23:15.819Z,61.16
2022-11-13T10:28:55.128Z,60.92
2022-11-13T10:34:18.209Z,60.52
2022-11-13T10:39:44.095Z,59.69
2022-11-13T10:45:13.627Z,58.80
2022-11-13T10:50:35.720Z,58.04
2022-11-13T10:55:58.032Z,57.64
2022-11-13T11:01:23.986Z,58.32
2022-11-13T11:12:30.918Z,60.15
2022-11-13T11:18:02.712Z,59.69
2022-11-13T11:23:53.269Z,59.68
2022-11-13T11:29:29.711Z,59.81
2022-11-13T11:35:05.304Z,59.42
2022-11-13T11:40:36.517Z,59.98
2022-11-13T11:45:57.887Z,60.20
2022-11-13T11:51:34.891Z,61.06
2022-11-13T11:57:00.306Z,62.47
2022-11-13T12:02:21.223Z,63.07
2022-11-13T12:07:55.741Z,63.83
2022-11-13T12:13:28.553Z,63.44
2022-11-13T12:19:10.880Z,63.92
2022-11-13T12:24:32.678Z,63.05
2022-11-13T12:30:09.291Z,62.22
2022-11-13T12:35:31.184Z,62.41
2022-11-13T12:41:24.346Z,62.69
2022-11-13T12:46:46.130Z,62.60
2022-11-13T12:52:17.054Z,63.71
2022-11-13T12:57:47.977Z,63.47
2022-11-13T13:03:24.497Z,64.45
2022-11-13T13:08:46.781Z,65.06
2022-11-13T13:14:07.794Z,65.41
2022-11-13T13:19:31.699Z,67.30
2022-11-13T13:25:06.293Z,67.75
2022-11-13T13:30:33.877Z,67.71
2022-11-13T13:36:00.459Z,67.76
2022-11-13T13:41:31.155Z,68.42
2022-11-13T13:46:52.424Z,68.24
2022-11-13T13:52:17.063Z,68.44
2022-11-13T13:57:42.576Z,68.73
2022-11-13T14:03:04.593Z,69.51
2022-11-13T14:08:27.290Z,69.62
2022-11-13T14:13:48.868Z,69.11
2022-11-13T14:19:11.910Z,68.30
2022-11-13T14:24:53.023Z,68.24
2022-11-13T14:30:27.265Z,68.10
2022-11-13T14:35:56.719Z,68.18
2022-11-13T14:41:26.075Z,68.19
2022-11-13T14:46:47.729Z,68.00
2022-11-13T14:52:23.521Z,68.42
2022-11-13T14:57:50.896Z,68.53
2022-11-13T15:03:12.893Z,68.44
2022-11-13T15:08:34.789Z,69.21
2022-11-13T15:14:00.073Z,68.74
2022-11-13T15:19:35.628Z,69.02
2022-11-13T15:24:56.758Z,69.79
2022-11-13T15:30:18.657Z,70.37
2022-11-13T15:35:41.443Z,70.31
2022-11-13T15:41:02.606Z,70.54
2022-11-13T15:46:25.043Z,70.99
2022-11-13T15:51:46.647Z,71.65
2022-11-13T15:57:18.322Z,71.52
2022-11-13T16:02:40.102Z,71.93
2022-11-13T16:08:01.204Z,72.50
2022-11-13T16:13:22.455Z,72.04
2022-11-13T16:18:43.366Z,72.13
2022-11-13T16:24:04.956Z,71.76
2022-11-13T16:29:26.112Z,71.64
2022-11-13T16:34:47.830Z,71.65
2022-11-13T16:40:30.745Z,71.61
2022-11-13T16:45:52.878Z,71.56
2022-11-13T16:51:15.054Z,71.83
2022-11-13T16:56:36.586Z,71.62
2022-11-13T17:01:57.863Z,71.88
2022-11-13T17:07:19.003Z,71.73
2022-11-13T17:12:41.260Z,71.62
2022-11-13T17:18:02.720Z,71.88
2022-11-13T17:23:26.700Z,71.44
2022-11-13T17:28:48.546Z,72.29
2022-11-13T17:34:13.257Z,73.56
2022-11-13T17:39:37.308Z,74.85
2022-11-13T17:44:58.477Z,75.61
2022-11-13T17:50:19.665Z,76.61
2022-11-13T17:55:40.647Z,77.42
2022-11-13T18:01:07.918Z,77.75
2022-11-13T18:06:29.281Z,78.36
2022-11-13T18:11:50.479Z,79.07
2022-11-13T18:17:11.422Z,79.55
2022-11-13T18:22:32.607Z,80.14
2022-11-13T18:27:53.855Z,80.15
2022-11-13T18:33:15.083Z,80.75
2022-11-13T18:38:36.625Z,81.25
2022-11-13T18:43:58.039Z,81.46
2022-11-13T18:49:19.283Z,80.86
2022-11-13T18:54:40.398Z,80.92
2022-11-13T19:00:01.597Z,80.16
2022-11-13T19:05:22.831Z,79.89
2022-11-13T19:10:44.024Z,79.73
2022-11-13T19:16:13.284Z,79.43
2022-11-13T19:21:36.213Z,79.33
2022-11-13T19:26:57.433Z,79.02
2022-11-13T19:32:21.279Z,78.66
2022-11-13T19:37:42.346Z,79.32
2022-11-13T19:43:03.605Z,78.57
2022-11-13T19:48:24.588Z,78.45
2022-11-13T19:53:46.566Z,78.74
2022-11-13T19:59:11.458Z,79.81
2022-11-13T20:04:33.460Z,80.31
2022-11-13T20:09:54.759Z,80.76
2022-11-13T20:15:16.103Z,81.49
2022-11-13T20:20:37.175Z,82.19
2022-11-13T20:26:03.604Z,82.15
2022-11-13T20:31:25.728Z,81.61
2022-11-13T20:36:46.763Z,81.31
2022-11-13T20:42:08.457Z,81.09
2022-11-13T20:47:29.504Z,80.87
2022-11-13T20:52:50.765Z,80.52
2022-11-13T20:58:11.680Z,79.74
2022-11-13T21:03:39.882Z,79.35
2022-11-13T21:09:03.650Z,78.71
2022-11-13T21:14:25.081Z,77.98
2022-11-13T21:19:46.372Z,77.49
2022-11-13T21:25:07.928Z,77.57
2022-11-13T21:30:29.283Z,77.33
2022-11-13T21:35:50.364Z,78.17
2022-11-13T21:41:22.057Z,78.16
2022-11-13T21:46:43.504Z,77.82
2022-11-13T21:52:04.730Z,78.31
2022-11-13T21:57:27.203Z,78.93
2022-11-13T22:02:48.464Z,79.63
2022-11-13T22:08:09.566Z,80.47
2022-11-13T22:13:30.910Z,80.92
2022-11-13T22:19:00.381Z,82.14
2022-11-13T22:24:21.569Z,84.46
2022-11-13T22:29:42.964Z,85.20
2022-11-13T22:35:06.038Z,85.76
2022-11-13T22:40:26.989Z,83.69
2022-11-13T22:45:48.226Z,82.69
2022-11-13T22:51:15.516Z,80.87
2022-11-13T22:56:37.948Z,79.91
2022-11-13T23:01:59.318Z,79.50
2022-11-13T23:07:20.570Z,78.79
2022-11-13T23:12:41.867Z,78.16
2022-11-13T23:18:07.161Z,77.53
2022-11-13T23:23:31.227Z,77.77
2022-11-13T23:28:52.455Z,77.89
2022-11-13T23:34:16.618Z,81.51
2022-11-13T23:39:48.157Z,82.28
2022-11-13T23:45:09.598Z,80.79
2022-11-13T23:50:30.740Z,79.59
2022-11-13T23:55:52.015Z,77.18
